Time;durP1;ratioP1;P1;durP2;ratioP2;P2;SDS_P1;SDS_P2;PMS_P1;PMS_P2;Temp;Humidity;BMP_temperature;BMP_pressure;BME280_temperature;BME280_humidity;BME280_pressure;Samples;Min_cycle;Max_cycle;Signal;HPM_P1;HPM_P2
2022/11/18 00:01:11;;;;;;;1.33;0.50;;;14.20;74.70;;;;;;2388422;52;20946;-75
2022/11/18 00:03:38;;;;;;;1.37;0.50;;;14.20;74.60;;;;;;2553970;52;21037;-76
2022/11/18 00:06:05;;;;;;;1.42;0.50;;;14.20;74.60;;;;;;2612160;52;20894;-75
2022/11/18 00:08:31;;;;;;;1.55;0.55;;;14.20;74.60;;;;;;2360927;53;20942;-80
2022/11/18 00:10:57;;;;;;;1.25;0.47;;;14.20;74.70;;;;;;2360776;53;21431;-77
2022/11/18 00:16:11;;;;;;;1.33;0.40;;;14.20;74.70;;;;;;2364145;52;21709;-78
2022/11/18 00:18:37;;;;;;;1.00;0.37;;;14.20;74.70;;;;;;2363968;52;20973;-76
2022/11/18 00:21:07;;;;;;;2.17;0.40;;;14.20;74.70;;;;;;2594095;52;20918;-77
2022/11/18 00:23:34;;;;;;;0.82;0.28;;;14.20;74.70;;;;;;2353069;53;21432;-77
2022/11/18 00:26:04;;;;;;;1.02;0.30;;;14.30;74.90;;;;;;2611944;52;21194;-76
2022/11/18 00:28:31;;;;;;;1.27;0.32;;;14.30;74.90;;;;;;2360589;53;21352;-76
2022/11/18 00:31:04;;;;;;;0.82;0.35;;;14.30;74.90;;;;;;2612208;52;21006;-77
2022/11/18 00:33:31;;;;;;;0.73;0.30;;;14.30;74.70;;;;;;2360340;53;21455;-76
2022/11/18 00:35:57;;;;;;;1.02;0.30;;;14.30;74.90;;;;;;2360143;53;21527;-78
2022/11/18 00:38:24;;;;;;;1.02;0.37;;;14.30;74.90;;;;;;2442757;52;20958;-77
2022/11/18 00:41:07;;;;;;;1.73;0.50;;;14.30;74.80;;;;;;2574563;52;20982;-75
2022/11/18 00:43:34;;;;;;;1.58;0.40;;;14.30;74.50;;;;;;2610768;52;21452;-78
2022/11/18 00:46:00;;;;;;;2.83;0.40;;;14.30;75.50;;;;;;2475714;52;21764;-77
2022/11/18 00:48:27;;;;;;;1.00;0.30;;;14.30;74.80;;;;;;2360482;53;20946;-74
2022/11/18 00:50:55;;;;;;;1.45;0.40;;;14.30;74.90;;;;;;2612201;52;20982;-78
2022/11/18 00:53:22;;;;;;;0.75;0.30;;;14.30;74.80;;;;;;2360744;53;20926;-76
2022/11/18 00:55:49;;;;;;;1.30;0.35;;;14.30;74.80;;;;;;2337725;53;1349666;-76
2022/11/18 00:58:15;;;;;;;1.85;0.50;;;14.30;74.90;;;;;;2438270;52;21057;-78
2022/11/18 01:00:53;;;;;;;1.40;0.45;;;14.40;75.00;;;;;;2612625;52;20943;-74
2022/11/18 01:03:19;;;;;;;0.95;0.30;;;14.30;74.60;;;;;;2611842;52;21018;-77
2022/11/18 01:05:46;;;;;;;0.57;0.25;;;14.30;74.80;;;;;;2360891;53;21797;-74
2022/11/18 01:08:12;;;;;;;0.32;0.25;;;14.30;74.90;;;;;;2341263;54;21061;-78
2022/11/18 01:10:39;;;;;;;1.00;0.37;;;14.30;74.80;;;;;;2360814;53;21440;-75
2022/11/18 01:13:21;;;;;;;1.25;0.40;;;14.40;74.90;;;;;;2360630;53;21053;-75
2022/11/18 01:15:56;;;;;;;;;;;14.40;74.90;;;;;;2364345;53;20923;-76
2022/11/18 01:18:28;;;;;;;0.77;0.30;;;14.40;74.10;;;;;;2360749;53;20556;-76
2022/11/18 01:20:59;;;;;;;1.45;0.45;;;14.40;74.50;;;;;;2377322;52;21277;-77
2022/11/18 01:23:25;;;;;;;1.83;0.43;;;14.40;74.40;;;;;;2360402;53;21492;-76
2022/11/18 01:25:52;;;;;;;1.25;0.30;;;14.40;74.50;;;;;;2403814;52;21443;-79
2022/11/18 01:28:19;;;;;;;1.27;0.40;;;14.40;74.50;;;;;;2360398;53;21057;-77
2022/11/18 01:30:48;;;;;;;1.15;0.30;;;14.30;74.50;;;;;;2611714;52;20902;-75
2022/11/18 01:33:15;;;;;;;2.30;0.50;;;14.30;74.50;;;;;;2360367;53;20930;-78
2022/11/18 01:35:42;;;;;;;2.20;0.60;;;14.30;74.50;;;;;;2360798;53;21055;-79
2022/11/18 01:38:12;;;;;;;1.62;0.37;;;14.30;74.50;;;;;;2358601;53;20966;-74
2022/11/18 01:40:38;;;;;;;1.62;0.50;;;14.30;74.40;;;;;;2359211;53;20914;-77
2022/11/18 01:50:55;;;;;;;1.58;0.50;;;14.30;74.50;;;;;;2381620;52;21002;-75
2022/11/18 01:53:28;;;;;;;1.90;0.50;;;14.30;73.80;;;;;;2360063;53;21455;-77
2022/11/18 01:56:02;;;;;;;1.60;0.50;;;14.30;74.20;;;;;;2360306;53;20962;-77
2022/11/18 01:58:30;;;;;;;1.48;0.50;;;14.30;74.20;;;;;;2490380;52;21431;-75
2022/11/18 02:00:56;;;;;;;1.60;0.55;;;14.30;74.40;;;;;;2441040;52;20927;-75
2022/11/18 02:03:23;;;;;;;2.17;0.52;;;14.20;74.40;;;;;;2360847;53;21468;-76
2022/11/18 02:05:49;;;;;;;1.33;0.50;;;14.20;74.50;;;;;;2360395;53;20966;-75
2022/11/18 02:08:15;;;;;;;1.27;0.55;;;14.20;74.50;;;;;;2360429;53;21291;-79
2022/11/18 02:10:42;;;;;;;2.08;0.55;;;14.20;74.60;;;;;;2360375;53;20957;-80
2022/11/18 02:13:08;;;;;;;2.25;0.70;;;14.20;74.50;;;;;;2360648;53;21519;-73
2022/11/18 02:16:20;;;;;;;0.75;0.40;;;14.20;74.50;;;;;;2360738;53;21825;-77
2022/11/18 02:18:55;;;;;;;1.62;0.57;;;14.20;74.00;;;;;;2535273;52;21298;-77
2022/11/18 02:21:50;;;;;;;2.15;0.65;;;14.20;74.30;;;;;;2360785;53;20970;-78
2022/11/18 02:28:45;;;;;;;2.10;0.70;;;14.20;74.30;;;;;;2340800;54;20951;-74
2022/11/18 02:31:37;;;;;;;2.03;0.60;;;14.10;74.30;;;;;;2612435;52;20930;-75
2022/11/18 02:34:49;;;;;;;1.50;0.40;;;14.10;73.80;;;;;;2611982;52;21418;-73
2022/11/18 02:38:28;;;;;;;0.55;0.30;;;14.10;73.40;;;;;;2337149;53;21419;-74
2022/11/18 02:40:57;;;;;;;1.23;0.43;;;14.10;73.80;;;;;;2333165;53;20925;-74
2022/11/18 02:43:26;;;;;;;2.53;0.50;;;14.00;73.80;;;;;;2337011;53;20933;-78
2022/11/18 02:45:54;;;;;;;1.65;0.40;;;14.00;73.80;;;;;;2346469;52;20985;-75
2022/11/18 02:48:22;;;;;;;2.12;0.65;;;14.00;73.90;;;;;;2344226;53;21452;-78
2022/11/18 02:50:48;;;;;;;1.70;0.40;;;13.90;73.90;;;;;;2360216;53;20986;-77
2022/11/18 02:53:16;;;;;;;2.30;0.65;;;13.90;73.90;;;;;;2612298;52;20950;-75
2022/11/18 02:55:43;;;;;;;1.65;0.43;;;13.90;74.00;;;;;;2360522;53;20926;-74
2022/11/18 02:58:09;;;;;;;1.75;0.60;;;13.90;73.90;;;;;;2360290;53;21455;-77
2022/11/18 03:00:35;;;;;;;2.67;0.40;;;13.90;74.00;;;;;;2360800;53;21364;-75
2022/11/18 03:03:25;;;;;;;2.58;0.40;;;13.90;74.00;;;;;;2360346;53;21325;-76
2022/11/18 03:07:37;;;;;;;1.10;0.50;;;13.80;73.70;;;;;;2360437;53;20942;-74
2022/11/18 03:10:03;;;;;;;1.00;0.37;;;13.80;73.40;;;;;;2360405;53;20923;-78
2022/11/18 03:16:02;;;;;;;1.37;0.40;;;13.80;73.90;;;;;;2360523;53;20946;-77
2022/11/18 03:18:49;;;;;;;0.82;0.30;;;13.80;74.00;;;;;;2360487;53;20938;-73
2022/11/18 03:21:19;;;;;;;1.20;0.25;;;13.80;73.90;;;;;;2340541;54;21375;-73
2022/11/18 03:23:58;;;;;;;0.68;0.30;;;13.70;74.00;;;;;;2337135;53;21544;-74
2022/11/18 03:26:30;;;;;;;0.43;0.20;;;13.70;73.80;;;;;;2333129;53;20920;-74
2022/11/18 03:29:03;;;;;;;1.20;0.30;;;13.70;74.00;;;;;;2332961;53;21343;-73
2022/11/18 03:32:22;;;;;;;0.47;0.20;;;13.70;74.00;;;;;;2333040;53;21342;-75
2022/11/18 03:34:58;;;;;;;1.00;0.30;;;13.70;74.00;;;;;;2333015;53;20934;-76
2022/11/18 03:37:24;;;;;;;0.52;0.20;;;13.70;74.00;;;;;;2332787;53;21440;-75
2022/11/18 03:39:56;;;;;;;0.77;0.30;;;13.70;74.20;;;;;;2332884;53;21084;-74
2022/11/18 03:42:34;;;;;;;1.15;0.40;;;13.70;74.20;;;;;;2332857;53;21534;-74
2022/11/18 03:46:32;;;;;;;1.10;0.40;;;13.70;74.10;;;;;;2332732;53;20942;-75
2022/11/18 03:48:58;;;;;;;1.05;0.40;;;13.70;74.20;;;;;;2332360;53;20923;-71
2022/11/18 03:51:28;;;;;;;1.00;0.40;;;13.60;74.00;;;;;;2420346;52;20942;-74
2022/11/18 03:53:57;;;;;;;0.35;0.25;;;13.60;73.90;;;;;;2333169;53;20926;-78
2022/11/18 03:56:27;;;;;;;0.65;0.30;;;13.60;73.90;;;;;;2332875;53;20922;-73
2022/11/18 03:58:58;;;;;;;0.52;0.25;;;13.60;74.00;;;;;;2332027;53;21459;-77
2022/11/18 04:01:32;;;;;;;0.52;0.28;;;13.60;73.90;;;;;;2333247;53;21871;-77
2022/11/18 04:03:58;;;;;;;0.30;0.13;;;13.60;73.70;;;;;;2333479;53;20922;-74
2022/11/18 04:06:45;;;;;;;0.68;0.30;;;13.60;73.90;;;;;;2520693;52;20993;-74
2022/11/18 04:09:40;;;;;;;1.15;0.30;;;13.40;73.40;;;;;;2391040;52;21073;-74
2022/11/18 04:12:09;;;;;;;1.52;0.20;;;13.50;73.50;;;;;;2575253;52;21939;-76
2022/11/18 04:14:41;;;;;;;1.20;0.20;;;13.50;73.80;;;;;;2333306;53;20961;-74
2022/11/18 04:17:19;;;;;;;;;;;13.50;73.90;;;;;;2336743;53;20950;-73
2022/11/18 04:19:46;;;;;;;0.50;0.20;;;13.50;73.30;;;;;;2578601;52;20122;-73
2022/11/18 04:22:12;;;;;;;0.55;0.20;;;13.50;74.00;;;;;;2578159;52;21083;-76
2022/11/18 04:24:39;;;;;;;0.68;0.20;;;13.50;74.00;;;;;;2581537;52;21041;-78
2022/11/18 04:27:05;;;;;;;0.45;0.20;;;13.50;74.10;;;;;;2612882;52;21930;-74
2022/11/18 04:29:35;;;;;;;0.52;0.15;;;13.40;74.00;;;;;;2595726;52;21029;-75
2022/11/18 04:32:01;;;;;;;0.37;0.20;;;13.40;74.00;;;;;;2360717;53;21043;-73
2022/11/18 04:34:29;;;;;;;0.50;0.20;;;13.40;74.20;;;;;;2361293;53;20951;-73
2022/11/18 04:36:55;;;;;;;0.55;0.20;;;13.40;74.20;;;;;;2360731;53;20934;-73
2022/11/18 04:39:22;;;;;;;0.73;0.30;;;13.40;74.20;;;;;;2612842;52;21933;-73
2022/11/18 04:41:55;;;;;;;0.20;0.20;;;13.40;74.20;;;;;;2613668;52;20946;-73
2022/11/18 04:44:38;;;;;;;;;;;13.40;74.20;;;;;;2573469;52;20983;-73
2022/11/18 04:47:05;;;;;;;0.50;0.20;;;13.40;73.50;;;;;;2484399;52;20820;-73
2022/11/18 04:49:32;;;;;;;0.30;0.17;;;13.40;74.10;;;;;;2613212;52;21881;-73
2022/11/18 04:52:00;;;;;;;0.62;0.20;;;13.40;74.20;;;;;;2360798;53;20997;-74
2022/11/18 04:54:27;;;;;;;0.40;0.20;;;13.40;74.20;;;;;;2361302;53;20913;-74
2022/11/18 04:56:54;;;;;;;0.43;0.20;;;13.40;74.20;;;;;;2360986;53;20962;-74
2022/11/18 04:59:21;;;;;;;0.85;0.22;;;13.40;74.30;;;;;;2347604;53;20931;-74
2022/11/18 05:01:51;;;;;;;1.73;0.20;;;13.40;74.30;;;;;;2605152;52;21010;-74
2022/11/18 05:04:21;;;;;;;0.25;0.13;;;13.40;74.30;;;;;;2361546;53;20954;-74
2022/11/18 05:06:47;;;;;;;0.28;0.20;;;13.40;74.40;;;;;;2585794;52;20930;-74
2022/11/18 05:09:13;;;;;;;0.50;0.30;;;13.40;74.30;;;;;;2359661;53;22570;-74
2022/11/18 05:14:30;;;;;;;0.25;0.20;;;13.40;74.30;;;;;;2361101;53;20938;-74
2022/11/18 05:16:57;;;;;;;;;;;13.40;74.30;;;;;;2363754;53;20938;-74
2022/11/18 05:19:25;;;;;;;1.35;0.50;;;13.40;73.60;;;;;;2360838;53;20439;-74
2022/11/18 05:21:51;;;;;;;0.95;0.40;;;13.40;74.30;;;;;;2564548;52;21883;-74
2022/11/18 05:24:22;;;;;;;1.08;0.43;;;13.40;74.40;;;;;;2340517;53;20928;-74
2022/11/18 05:26:50;;;;;;;1.20;0.40;;;13.40;74.40;;;;;;2611787;52;21221;-73
2022/11/18 05:29:18;;;;;;;0.95;0.40;;;13.40;74.50;;;;;;2360338;53;21527;-73
2022/11/18 05:31:45;;;;;;;0.60;0.30;;;13.40;74.40;;;;;;2369642;52;20950;-73
2022/11/18 05:34:12;;;;;;;1.27;0.40;;;13.40;74.30;;;;;;2361213;53;20930;-73
2022/11/18 05:36:38;;;;;;;1.45;0.60;;;13.40;74.30;;;;;;2612482;52;20954;-73
2022/11/18 05:39:04;;;;;;;1.62;0.65;;;13.40;74.30;;;;;;2360180;53;21415;-74
2022/11/18 05:44:16;;;;;;;0.75;0.32;;;13.40;74.00;;;;;;2360876;53;20922;-74
2022/11/18 05:46:42;;;;;;;0.75;0.40;;;13.30;73.80;;;;;;2612425;52;21069;-74
2022/11/18 05:49:09;;;;;;;2.35;1.00;;;13.30;73.90;;;;;;2360948;53;21038;-74
2022/11/18 05:51:42;;;;;;;1.60;0.60;;;13.30;74.00;;;;;;2436544;52;21948;-74
2022/11/18 05:54:10;;;;;;;1.30;0.50;;;13.30;74.20;;;;;;2351578;53;20927;-73
2022/11/18 05:56:40;;;;;;;3.08;0.70;;;13.30;74.30;;;;;;2601981;52;21261;-73
2022/11/18 05:59:07;;;;;;;1.75;0.60;;;13.30;74.30;;;;;;2360440;53;20989;-73
2022/11/18 06:01:42;;;;;;;1.30;0.50;;;13.30;74.30;;;;;;2546605;52;21554;-73
2022/11/18 06:04:15;;;;;;;1.00;0.40;;;13.30;74.30;;;;;;2360781;53;21529;-73
2022/11/18 06:06:41;;;;;;;;;;;13.30;74.30;;;;;;2616361;52;21492;-73
2022/11/18 06:09:08;;;;;;;0.75;0.40;;;13.30;73.60;;;;;;2360058;53;20484;-73
2022/11/18 06:11:40;;;;;;;1.40;0.40;;;13.30;74.10;;;;;;2360307;53;21314;-73
2022/11/18 06:14:13;;;;;;;2.03;0.50;;;13.30;74.00;;;;;;2415996;52;21459;-73
2022/11/18 06:16:40;;;;;;;1.52;0.50;;;13.20;73.90;;;;;;2431390;52;21013;-73
2022/11/18 06:19:06;;;;;;;1.25;0.40;;;13.20;73.90;;;;;;2360168;53;20925;-73
2022/11/18 06:21:33;;;;;;;2.42;0.68;;;13.20;73.90;;;;;;2475800;52;21217;-73
2022/11/18 06:23:59;;;;;;;1.90;0.60;;;13.20;73.90;;;;;;2611948;52;20966;-73
2022/11/18 06:26:26;;;;;;;2.12;0.90;;;13.20;73.90;;;;;;2428489;52;21581;-73
2022/11/18 06:28:53;;;;;;;2.37;1.12;;;13.20;74.00;;;;;;2360733;53;21062;-73
2022/11/18 06:31:19;;;;;;;2.08;0.73;;;13.20;74.10;;;;;;2372258;52;20966;-73
2022/11/18 06:33:46;;;;;;;2.28;0.73;;;13.10;74.00;;;;;;2360774;53;21902;-73
2022/11/18 06:36:12;;;;;;;1.65;0.62;;;13.10;74.00;;;;;;2612313;52;21492;-73
2022/11/18 06:38:39;;;;;;;1.67;0.70;;;13.10;74.10;;;;;;2361504;53;20965;-73
2022/11/18 06:41:05;;;;;;;2.15;0.85;;;13.10;74.10;;;;;;2612314;52;21441;-73
2022/11/18 06:43:38;;;;;;;1.55;0.65;;;13.10;74.20;;;;;;2360974;53;20930;-73
2022/11/18 06:48:50;;;;;;;1.37;0.68;;;13.10;74.30;;;;;;2360421;53;21232;-73
2022/11/18 06:51:16;;;;;;;1.27;0.60;;;13.10;74.30;;;;;;2361149;53;21022;-73
2022/11/18 06:53:42;;;;;;;2.03;0.60;;;13.10;74.40;;;;;;2460793;52;20942;-73
2022/11/18 06:56:11;;;;;;;1.65;0.80;;;13.10;74.40;;;;;;2611902;52;20926;-73
2022/11/18 06:58:40;;;;;;;1.58;0.60;;;13.10;74.40;;;;;;2361350;53;21056;-73
2022/11/18 07:01:26;;;;;;;1.12;0.57;;;13.10;74.30;;;;;;2612503;52;21081;-73
2022/11/18 07:03:53;;;;;;;1.12;0.50;;;13.10;74.10;;;;;;2360461;53;20930;-73
2022/11/18 07:06:21;;;;;;;1.98;0.70;;;13.10;74.40;;;;;;2612626;52;20950;-73
2022/11/18 07:08:48;;;;;;;1.25;0.50;;;13.10;74.40;;;;;;2360882;53;22906;-74
2022/11/18 07:11:16;;;;;;;1.08;0.40;;;13.10;74.40;;;;;;2611909;52;21672;-74
2022/11/18 07:13:43;;;;;;;0.68;0.30;;;13.10;74.30;;;;;;2360927;53;20946;-73
2022/11/18 07:16:14;;;;;;;1.05;0.40;;;13.10;74.30;;;;;;2612302;52;21466;-73
2022/11/18 07:18:41;;;;;;;0.85;0.40;;;13.10;74.20;;;;;;2361146;53;21458;-73
2022/11/18 07:21:12;;;;;;;0.85;0.50;;;13.10;74.20;;;;;;2523352;52;20986;-74
2022/11/18 07:23:38;;;;;;;0.90;0.30;;;13.10;74.20;;;;;;2612192;52;21480;-74
2022/11/18 07:26:05;;;;;;;0.68;0.32;;;13.10;74.20;;;;;;2612208;52;21480;-74
2022/11/18 07:28:32;;;;;;;0.95;0.40;;;13.10;74.20;;;;;;2612281;52;20958;-74
2022/11/18 07:31:05;;;;;;;0.60;0.30;;;13.10;74.20;;;;;;2612365;52;21349;-74
2022/11/18 07:33:32;;;;;;;0.52;0.25;;;13.10;74.20;;;;;;2612136;52;21448;-74
2022/11/18 07:36:12;;;;;;;1.40;0.32;;;13.00;74.10;;;;;;2612268;52;20977;-74
2022/11/18 07:38:38;;;;;;;0.70;0.37;;;13.10;74.10;;;;;;2471579;52;21454;-74
2022/11/18 07:41:12;;;;;;;1.23;0.47;;;13.00;74.00;;;;;;2612386;52;20955;-73
2022/11/18 07:43:38;;;;;;;0.88;0.30;;;13.00;73.80;;;;;;2612254;52;20955;-73
2022/11/18 07:46:15;;;;;;;0.55;0.30;;;13.00;73.90;;;;;;2612077;52;21234;-73
2022/11/18 07:48:42;;;;;;;0.65;0.30;;;13.00;73.80;;;;;;2360892;53;21451;-74
2022/11/18 07:51:09;;;;;;;0.93;0.30;;;13.00;74.00;;;;;;2360791;53;21530;-74
2022/11/18 07:53:35;;;;;;;1.10;0.45;;;13.00;74.00;;;;;;2360570;53;20954;-73
2022/11/18 07:56:02;;;;;;;0.75;0.28;;;13.00;74.00;;;;;;2503658;52;20946;-73
2022/11/18 07:58:29;;;;;;;1.17;0.40;;;13.00;74.00;;;;;;2465719;52;20930;-74
2022/11/18 08:00:55;;;;;;;1.02;0.40;;;13.00;73.90;;;;;;2346666;53;21600;-73
2022/11/18 08:03:26;;;;;;;1.65;0.40;;;13.00;73.80;;;;;;2506364;52;22082;-73
2022/11/18 08:05:59;;;;;;;0.45;0.20;;;12.90;73.60;;;;;;2400877;53;21395;-73
2022/11/18 08:08:26;;;;;;;0.90;0.40;;;12.90;73.50;;;;;;2492368;52;20957;-73
2022/11/18 08:10:56;;;;;;;0.90;0.40;;;12.90;73.60;;;;;;2387568;52;21586;-73
2022/11/18 08:13:23;;;;;;;0.98;0.40;;;12.90;73.60;;;;;;2333065;53;21327;-74
2022/11/18 08:15:50;;;;;;;2.05;0.30;;;12.90;73.70;;;;;;2350942;52;21056;-74
2022/11/18 08:18:16;;;;;;;0.82;0.30;;;12.90;73.70;;;;;;2489812;52;21065;-73
2022/11/18 08:20:44;;;;;;;1.02;0.43;;;12.90;73.70;;;;;;2577883;52;21511;-73
2022/11/18 08:23:11;;;;;;;1.27;0.40;;;12.90;73.80;;;;;;2578465;52;21002;-73
2022/11/18 08:25:37;;;;;;;1.37;0.50;;;12.90;73.90;;;;;;2333533;53;20928;-73
2022/11/18 08:28:05;;;;;;;2.10;0.90;;;12.80;73.80;;;;;;2333055;53;21560;-73
2022/11/18 08:30:32;;;;;;;2.03;0.90;;;12.90;73.90;;;;;;2578678;52;21005;-73
2022/11/18 08:32:59;;;;;;;2.00;0.85;;;12.80;73.80;;;;;;2333257;53;20918;-73
2022/11/18 08:35:26;;;;;;;2.55;1.10;;;12.80;73.90;;;;;;2364809;52;20942;-73
2022/11/18 08:37:52;;;;;;;3.12;1.50;;;12.90;74.00;;;;;;2333211;53;20934;-73
2022/11/18 08:40:19;;;;;;;2.65;0.98;;;12.80;74.00;;;;;;2578764;52;21089;-73
2022/11/18 08:42:45;;;;;;;2.40;1.20;;;12.80;74.00;;;;;;2333296;53;21966;-73
2022/11/18 08:45:12;;;;;;;1.90;0.80;;;12.80;74.10;;;;;;2407587;52;21424;-73
2022/11/18 08:47:38;;;;;;;1.50;0.62;;;12.80;74.20;;;;;;2333484;53;21876;-73
2022/11/18 08:50:07;;;;;;;1.00;0.50;;;12.80;74.30;;;;;;2501797;52;21334;-73
2022/11/18 08:52:33;;;;;;;1.87;0.98;;;12.90;74.40;;;;;;2328583;53;22161;-74
2022/11/18 08:55:00;;;;;;;2.70;1.40;;;12.90;74.40;;;;;;2569706;52;21548;-73
2022/11/18 08:57:26;;;;;;;2.22;1.02;;;12.90;74.50;;;;;;2332761;53;21384;-73
2022/11/18 08:59:52;;;;;;;1.30;0.80;;;12.90;74.50;;;;;;2578019;52;20961;-74
2022/11/18 09:02:20;;;;;;;1.70;0.70;;;12.90;74.50;;;;;;2332633;53;21232;-73
2022/11/18 09:04:47;;;;;;;9.18;5.78;;;12.90;74.50;;;;;;2577739;52;21909;-73
2022/11/18 09:07:14;;;;;;;18.98;10.88;;;12.90;74.50;;;;;;2577932;52;20937;-73
2022/11/18 09:09:40;;;;;;;18.73;11.75;;;12.90;74.50;;;;;;2608502;52;20974;-73
2022/11/18 09:12:08;;;;;;;9.85;6.87;;;12.90;74.50;;;;;;2394450;52;21408;-73
2022/11/18 09:14:34;;;;;;;9.02;4.50;;;13.00;74.50;;;;;;2608204;52;21163;-73
2022/11/18 09:17:31;;;;;;;4.10;2.40;;;13.00;74.50;;;;;;2360738;53;21439;-73
2022/11/18 09:19:57;;;;;;;3.10;1.70;;;13.00;74.50;;;;;;2612547;52;21532;-73
2022/11/18 09:22:24;;;;;;;2.45;0.90;;;13.00;74.50;;;;;;2360608;53;20930;-73
2022/11/18 09:24:50;;;;;;;2.17;1.00;;;13.00;74.50;;;;;;2360657;53;20950;-73
2022/11/18 09:27:16;;;;;;;3.03;0.80;;;13.00;74.50;;;;;;2356580;53;21034;-73
2022/11/18 09:29:43;;;;;;;1.98;0.75;;;13.00;74.50;;;;;;2594705;52;21425;-73
2022/11/18 09:32:10;;;;;;;1.20;0.60;;;13.00;74.60;;;;;;2494625;52;20998;-73
2022/11/18 09:34:36;;;;;;;1.92;0.68;;;13.00;74.60;;;;;;2360673;53;21001;-73
2022/11/18 09:37:05;;;;;;;1.17;0.47;;;13.00;74.60;;;;;;2445484;52;21808;-73
2022/11/18 09:39:34;;;;;;;1.67;0.60;;;13.10;74.80;;;;;;2406755;52;20974;-74
2022/11/18 09:42:27;;;;;;;0.80;0.40;;;13.10;74.70;;;;;;2361046;53;20902;-73
2022/11/18 09:45:38;;;;;;;1.73;0.60;;;13.10;74.70;;;;;;2612645;52;21518;-74
2022/11/18 09:48:16;;;;;;;1.42;0.50;;;13.10;74.50;;;;;;2360479;53;21464;-73
2022/11/18 09:50:42;;;;;;;1.48;0.55;;;13.20;74.70;;;;;;2361106;53;20978;-73
2022/11/18 09:53:24;;;;;;;2.20;0.62;;;13.20;74.90;;;;;;2518360;52;21320;-73
2022/11/18 09:55:50;;;;;;;2.90;1.35;;;13.20;74.80;;;;;;2478881;52;21286;-74
2022/11/18 09:58:32;;;;;;;2.90;1.42;;;13.20;74.90;;;;;;2612363;52;21446;-73
2022/11/18 10:00:59;;;;;;;2.35;1.05;;;13.20;74.80;;;;;;2361014;53;20926;-74
2022/11/18 10:03:29;;;;;;;2.37;1.00;;;13.20;75.00;;;;;;2361071;53;20922;-74
2022/11/18 10:06:25;;;;;;;2.17;0.85;;;13.30;75.10;;;;;;2496654;52;21950;-73
2022/11/18 10:10:17;;;;;;;2.12;0.98;;;13.30;75.00;;;;;;2612089;52;21516;-73
2022/11/18 10:14:25;;;;;;;1.77;0.80;;;13.30;74.70;;;;;;2361099;53;21054;-74
2022/11/18 10:17:24;;;;;;;1.33;0.60;;;13.40;75.00;;;;;;2360503;53;20950;-73
2022/11/18 10:20:21;;;;;;;1.80;0.80;;;13.40;75.30;;;;;;2360886;53;21460;-74
2022/11/18 10:26:35;;;;;;;1.75;0.70;;;13.50;75.40;;;;;;2360807;53;21025;-74
2022/11/18 10:29:01;;;;;;;1.40;0.68;;;13.60;74.90;;;;;;2612303;52;21486;-74
2022/11/18 10:31:27;;;;;;;1.62;0.57;;;13.60;75.30;;;;;;2613031;52;21018;-73
2022/11/18 10:34:00;;;;;;;1.70;0.43;;;13.60;75.30;;;;;;2360945;53;20926;-74
2022/11/18 10:36:28;;;;;;;1.75;0.60;;;13.60;75.20;;;;;;2470352;52;21480;-73
2022/11/18 10:39:17;;;;;;;3.12;0.55;;;13.60;75.30;;;;;;2612427;52;22734;-74
2022/11/18 10:41:51;;;;;;;1.80;0.60;;;13.70;75.40;;;;;;2361016;53;21315;-74
2022/11/18 10:44:37;;;;;;;0.93;0.52;;;13.70;75.60;;;;;;2360887;53;20938;-74
2022/11/18 10:47:26;;;;;;;3.30;0.70;;;13.70;75.70;;;;;;2360797;53;21468;-73
2022/11/18 10:49:52;;;;;;;1.98;0.68;;;13.80;75.70;;;;;;2360685;53;21567;-74
2022/11/18 10:52:19;;;;;;;1.92;0.80;;;13.80;75.90;;;;;;2589055;52;21030;-74
2022/11/18 10:54:46;;;;;;;1.55;0.47;;;13.90;76.10;;;;;;2361237;53;21516;-74
2022/11/18 10:57:21;;;;;;;1.70;0.60;;;13.80;75.90;;;;;;2361303;53;20930;-72
2022/11/18 10:59:55;;;;;;;3.15;0.50;;;14.00;76.10;;;;;;2361255;53;20961;-73
2022/11/18 11:02:42;;;;;;;2.30;0.70;;;14.00;75.90;;;;;;2361148;53;21502;-73
2022/11/18 11:05:19;;;;;;;1.73;0.65;;;14.00;75.50;;;;;;2360643;53;21795;-76
2022/11/18 11:07:45;;;;;;;1.87;0.70;;;14.10;75.60;;;;;;2361018;53;21691;-75
2022/11/18 11:10:22;;;;;;;2.08;0.60;;;14.10;75.80;;;;;;2612531;52;21552;-74
2022/11/18 11:12:55;;;;;;;0.82;0.45;;;14.10;75.60;;;;;;2360770;53;20914;-73
2022/11/18 11:15:41;;;;;;;1.77;0.60;;;14.10;75.60;;;;;;2534980;52;21466;-74
2022/11/18 11:20:57;;;;;;;2.00;0.47;;;14.20;75.20;;;;;;2612473;52;21523;-73
2022/11/18 11:23:24;;;;;;;0.95;0.37;;;14.20;75.30;;;;;;2373647;52;21106;-77
2022/11/18 11:26:02;;;;;;;1.35;0.50;;;14.20;75.20;;;;;;2360950;53;21502;-74
2022/11/18 11:30:31;;;;;;;1.35;0.45;;;14.30;74.90;;;;;;2612505;52;20883;-74
2022/11/18 11:33:08;;;;;;;1.50;0.45;;;14.30;74.90;;;;;;2360103;53;20915;-74
2022/11/18 11:38:53;;;;;;;1.30;0.40;;;14.30;74.40;;;;;;2612719;52;21544;-74
2022/11/18 11:41:24;;;;;;;2.00;0.60;;;14.30;74.20;;;;;;2485575;52;20927;-74
2022/11/18 11:44:18;;;;;;;1.23;0.40;;;14.30;74.70;;;;;;2362559;53;21899;-73
2022/11/18 11:51:38;;;;;;;2.58;0.47;;;14.30;73.60;;;;;;2361116;53;21768;-74
2022/11/18 11:54:22;;;;;;;1.45;0.57;;;14.30;73.70;;;;;;2360524;53;21002;-74
2022/11/18 11:58:30;;;;;;;1.73;0.60;;;14.20;73.70;;;;;;2360567;53;21014;-77
2022/11/18 12:01:21;;;;;;;1.45;0.52;;;14.20;73.20;;;;;;2370726;52;21549;-74
2022/11/18 12:03:55;;;;;;;2.20;0.50;;;14.30;73.80;;;;;;2360950;53;21021;-74
2022/11/18 12:06:21;;;;;;;1.75;0.50;;;14.20;73.80;;;;;;2360776;53;20914;-76
2022/11/18 12:08:58;;;;;;;1.42;0.40;;;14.20;73.90;;;;;;2360578;53;21049;-75
2022/11/18 12:11:36;;;;;;;1.42;0.32;;;14.20;73.80;;;;;;2360636;53;20907;-76
2022/11/18 12:14:34;;;;;;;1.52;0.50;;;14.20;73.60;;;;;;2360543;53;20926;-74
2022/11/18 12:17:24;;;;;;;2.45;0.62;;;14.20;73.80;;;;;;2558354;52;21534;-74
2022/11/18 12:19:51;;;;;;;2.37;0.82;;;14.20;73.30;;;;;;2360352;53;21949;-75
2022/11/18 12:22:18;;;;;;;1.27;0.52;;;14.10;73.70;;;;;;2359844;53;20926;-74
2022/11/18 12:24:44;;;;;;;2.47;0.90;;;14.10;73.80;;;;;;2360568;53;21414;-74
2022/11/18 12:28:12;;;;;;;2.25;0.80;;;14.10;74.00;;;;;;2360538;53;21053;-74
2022/11/18 12:30:39;;;;;;;1.45;0.50;;;14.20;73.30;;;;;;2338029;53;20940;-74
2022/11/18 12:33:10;;;;;;;2.10;0.70;;;14.10;74.20;;;;;;2333483;53;20984;-78
2022/11/18 12:35:36;;;;;;;1.48;0.52;;;14.10;74.20;;;;;;2481036;52;20937;-76
2022/11/18 12:38:07;;;;;;;1.52;0.68;;;14.10;74.20;;;;;;2333281;53;21117;-77
2022/11/18 12:40:44;;;;;;;2.08;0.60;;;14.10;74.20;;;;;;2333881;53;20998;-74
2022/11/18 12:44:08;;;;;;;2.37;0.60;;;14.10;74.10;;;;;;2333956;53;21359;-75
2022/11/18 12:46:57;;;;;;;1.17;0.50;;;14.10;73.30;;;;;;2579286;52;20967;-74
2022/11/18 12:50:11;;;;;;;1.73;0.47;;;14.20;73.50;;;;;;2339000;54;21061;-75
2022/11/18 12:52:56;;;;;;;1.95;0.35;;;14.10;73.10;;;;;;2333647;53;21067;-75
2022/11/18 12:55:25;;;;;;;1.15;0.40;;;14.20;73.60;;;;;;2333543;53;21457;-75
2022/11/18 12:57:52;;;;;;;2.80;0.50;;;14.10;74.00;;;;;;2566789;52;20964;-77
2022/11/18 13:00:50;;;;;;;1.70;0.40;;;14.10;74.10;;;;;;2578578;52;21481;-78
2022/11/18 13:03:23;;;;;;;2.58;0.43;;;14.10;73.50;;;;;;2579139;52;20945;-76
2022/11/18 13:05:56;;;;;;;2.15;0.60;;;14.10;73.90;;;;;;2578420;52;20959;-74
2022/11/18 13:08:22;;;;;;;0.80;0.35;;;14.10;74.00;;;;;;2578261;52;21469;-74
2022/11/18 13:11:43;;;;;;;1.35;0.40;;;14.10;74.10;;;;;;2333063;53;20928;-74
2022/11/18 13:17:50;;;;;;;2.22;0.68;;;14.10;73.80;;;;;;2333255;53;21428;-74
2022/11/18 13:20:36;;;;;;;2.40;0.80;;;14.10;73.50;;;;;;2333221;53;21519;-74
2022/11/18 13:23:54;;;;;;;1.58;0.55;;;14.10;73.70;;;;;;2578198;52;21494;-73
2022/11/18 13:26:29;;;;;;;1.85;0.62;;;14.10;73.80;;;;;;2333630;53;21015;-74
2022/11/18 13:29:27;;;;;;;4.25;0.70;;;14.10;74.20;;;;;;2333060;53;21431;-74
2022/11/18 13:32:40;;;;;;;1.80;0.80;;;14.10;73.80;;;;;;2332914;53;20962;-74
2022/11/18 13:35:14;;;;;;;2.62;1.00;;;14.10;74.00;;;;;;2332889;53;21442;-74
2022/11/18 13:37:50;;;;;;;2.58;0.85;;;14.10;74.70;;;;;;2360991;52;20962;-74
2022/11/18 13:41:02;;;;;;;1.55;0.70;;;14.20;74.70;;;;;;2605087;52;20974;-74
2022/11/18 13:43:31;;;;;;;1.45;0.57;;;14.20;74.30;;;;;;2354148;53;20918;-74
2022/11/18 13:46:03;;;;;;;1.08;0.50;;;14.30;74.90;;;;;;2613076;52;21540;-75
2022/11/18 13:48:29;;;;;;;1.10;0.40;;;14.20;74.80;;;;;;2360700;53;20959;-73
2022/11/18 13:50:56;;;;;;;0.70;0.30;;;14.20;74.70;;;;;;2360817;53;20942;-77
2022/11/18 13:53:29;;;;;;;0.90;0.47;;;14.20;74.70;;;;;;2360478;53;21045;-74
2022/11/18 13:56:19;;;;;;;2.08;0.70;;;14.20;74.20;;;;;;2360245;53;20942;-74
2022/11/18 13:58:55;;;;;;;0.90;0.47;;;14.20;73.90;;;;;;2360363;53;20911;-74
2022/11/18 14:01:42;;;;;;;1.65;0.40;;;14.20;74.00;;;;;;2572028;52;20965;-76
2022/11/18 14:05:14;;;;;;;1.83;0.50;;;14.20;74.30;;;;;;2360054;53;21831;-79
2022/11/18 14:08:01;;;;;;;1.15;0.32;;;14.20;73.30;;;;;;2612262;52;21762;-75
2022/11/18 14:10:41;;;;;;;0.52;0.30;;;14.20;73.90;;;;;;2532829;52;21451;-74
2022/11/18 14:16:39;;;;;;;2.37;0.30;;;14.20;74.00;;;;;;2411215;52;21580;-77